createdAt,value
2024-05-09T00:06:33.344Z,102316.22
2024-05-09T00:16:34.929Z,102311.78
2024-05-09T00:26:36.575Z,102303.69
2024-05-09T00:36:38.123Z,102294.16
2024-05-09T00:46:39.906Z,102296.25
2024-05-09T00:56:41.643Z,102304.38
2024-05-09T01:06:43.232Z,102299.22
2024-05-09T01:16:44.935Z,102307.09
2024-05-09T01:26:47.519Z,102297.50
2024-05-09T01:36:49.010Z,102303.50
2024-05-09T01:46:50.627Z,102299.91
2024-05-09T01:56:52.245Z,102284.16
2024-05-09T02:06:53.788Z,102288.97
2024-05-09T02:16:55.318Z,102287.06
2024-05-09T02:26:56.843Z,102284.41
2024-05-09T02:36:58.399Z,102280.69
2024-05-09T02:46:59.964Z,102279.44
2024-05-09T02:57:01.588Z,102278.06
2024-05-09T03:07:03.134Z,102271.81
2024-05-09T03:17:04.890Z,102269.63
2024-05-09T03:27:06.581Z,102271.38
2024-05-09T03:37:08.188Z,102270.81
2024-05-09T03:47:09.813Z,102275.84
2024-05-09T03:57:11.351Z,102270.78
2024-05-09T04:07:12.972Z,102271.56
2024-05-09T04:17:14.602Z,102266.50
2024-05-09T04:27:16.192Z,102270.03
2024-05-09T04:37:17.787Z,102276.25
2024-05-09T04:47:20.845Z,102272.94
2024-05-09T04:57:22.444Z,102271.47
2024-05-09T05:07:23.951Z,102274.41
2024-05-09T05:17:25.627Z,102276.84
2024-05-09T05:27:27.328Z,102290.25
2024-05-09T05:37:28.820Z,102286.56
2024-05-09T05:47:30.424Z,102289.06
2024-05-09T05:57:31.974Z,102297.66
2024-05-09T06:07:33.579Z,102294.81
2024-05-09T06:17:35.255Z,102287.28
2024-05-09T06:27:36.972Z,102288.13
2024-05-09T06:37:38.507Z,102290.63
2024-05-09T06:47:40.232Z,102296.41
2024-05-09T06:57:43.150Z,102296.84
2024-05-09T07:07:44.902Z,102298.84
2024-05-09T07:17:46.642Z,102307.75
2024-05-09T07:27:48.286Z,102305.22
2024-05-09T07:37:50.170Z,102312.25
2024-05-09T07:49:16.428Z,102299.19
2024-05-09T07:58:13.223Z,102313.03
2024-05-09T08:08:14.881Z,102304.28
2024-05-09T08:18:16.600Z,102298.97
2024-05-09T08:28:18.547Z,102287.41
2024-05-09T08:38:20.230Z,102296.88
2024-05-09T08:48:24.336Z,102289.69
2024-05-09T08:58:26.791Z,102286.84
2024-05-09T09:08:28.526Z,102279.72
2024-05-09T09:18:30.809Z,102278.72
2024-05-09T09:28:37.091Z,102284.78
2024-05-09T09:38:40.096Z,102271.53
2024-05-09T09:48:43.405Z,102264.41
2024-05-09T09:58:46.611Z,102257.88
2024-05-09T10:08:49.502Z,102250.63
2024-05-09T10:18:51.316Z,102245.28
2024-05-09T10:28:53.029Z,102243.50
2024-05-09T10:38:55.314Z,102234.03
2024-05-09T10:48:58.286Z,102229.69
2024-05-09T10:59:00.028Z,102211.31
2024-05-09T11:09:01.722Z,102197.03
2024-05-09T11:19:03.477Z,102188.78
2024-05-09T11:29:05.269Z,102186.78
2024-05-09T11:39:06.893Z,102172.88
2024-05-09T11:49:09.544Z,102166.56
2024-05-09T11:59:11.450Z,102153.59
2024-05-09T12:09:13.076Z,102140.94
2024-05-09T12:19:14.698Z,102136.53
2024-05-09T12:29:16.494Z,102127.84
2024-05-09T12:39:18.105Z,102124.97
2024-05-09T12:49:20.266Z,102120.53
2024-05-09T12:59:22.109Z,102112.59
2024-05-09T13:09:23.658Z,102099.50
2024-05-09T13:19:25.396Z,102091.00
2024-05-09T13:29:27.193Z,102072.22
2024-05-09T13:39:28.741Z,102082.72
2024-05-09T13:49:30.512Z,102067.81
2024-05-09T13:59:32.274Z,102061.84
2024-05-09T14:09:33.838Z,102061.03
2024-05-09T14:19:35.402Z,102040.19
2024-05-09T14:29:37.089Z,102031.25
2024-05-09T14:39:38.868Z,102019.16
2024-05-09T14:49:40.534Z,102003.97
2024-05-09T14:59:42.069Z,101996.22
2024-05-09T15:09:43.686Z,101993.16
2024-05-09T15:19:45.392Z,101988.78
2024-05-09T15:29:47.032Z,101991.75
2024-05-09T15:39:49.486Z,101978.03
2024-05-09T15:49:51.292Z,101970.34
2024-05-09T15:59:53.048Z,101968.78
2024-05-09T16:09:54.607Z,101963.66
2024-05-09T16:19:56.270Z,101968.91
2024-05-09T16:30:02.900Z,101961.06
2024-05-09T16:40:09.912Z,101951.59
2024-05-09T16:50:25.709Z,101946.38
2024-05-09T17:00:39.061Z,101946.47
2024-05-09T17:10:50.906Z,101938.78
2024-05-09T17:20:52.680Z,101939.72
2024-05-09T17:30:54.258Z,101932.88
2024-05-09T17:40:56.039Z,101930.28
2024-05-09T17:50:57.753Z,101927.88
2024-05-09T18:00:59.360Z,101921.16
2024-05-09T18:11:01.130Z,101925.81
2024-05-09T18:21:02.746Z,101931.47
2024-05-09T18:31:04.440Z,101932.66
2024-05-09T18:41:06.141Z,101934.03
2024-05-09T18:51:07.792Z,101952.47
2024-05-09T19:01:09.483Z,101938.16
2024-05-09T19:11:11.400Z,101945.53
2024-05-09T19:21:14.426Z,101958.81
2024-05-09T19:31:16.343Z,101971.47
2024-05-09T19:41:18.232Z,101983.69
2024-05-09T19:51:19.838Z,101977.66
2024-05-09T20:01:21.520Z,101985.84
2024-05-09T20:11:24.331Z,101995.88
2024-05-09T20:21:25.908Z,102000.31
2024-05-09T20:31:27.498Z,101997.75
2024-05-09T20:41:29.069Z,101994.47
2024-05-09T20:51:30.637Z,101984.13
2024-05-09T21:01:32.224Z,101990.28
2024-05-09T21:11:33.941Z,101996.34
2024-05-09T21:21:41.566Z,101991.22
2024-05-09T21:31:43.111Z,101988.63
2024-05-09T21:41:44.642Z,101985.22
2024-05-09T21:51:46.228Z,101973.84
2024-05-09T22:01:47.852Z,101966.09
2024-05-09T22:11:52.057Z,101970.47
2024-05-09T22:21:55.388Z,101970.47
2024-05-09T22:31:57.245Z,101973.06
2024-05-09T22:41:58.771Z,101964.38
2024-05-09T22:52:00.283Z,101976.50
2024-05-09T23:02:02.009Z,101990.19
2024-05-09T23:12:03.967Z,101985.03
2024-05-09T23:22:05.559Z,101982.41
2024-05-09T23:32:09.339Z,101979.75
2024-05-09T23:42:10.828Z,101979.56
2024-05-09T23:52:12.415Z,101975.13
